Airfield :
LOGIN :

Register | Disclaimer

   EN    FR    IT 

 










Legend :    VFR   Marginal VFR   IFR   Intensive IFR   Very Intensive IFR
Visi :
Ceiling :
>= 8 km
>= 3000ft
5 to 8 km
1000 to 3000 ft
1500m to 5 km
500 to 1000 ft
800 to 1500m
200 to 500 ft
< 800m
< 200 ft
Symbols :   Thunderstorms  Fog  Heavy snow  Heavy precipitations  Wind > 20 kt
SIGMETs :     Misc.  Thunderstorms  Icing  Turbulence  Mountain Waves  Volcanic Ashes







- Airport Elevation : 359 ft
- IATA code : BVA
- Download approach charts


LFOB - Beauvais

CURRENT METAR :
  • 211700Z AUTO 34005KT 310V010 CAVOK 21/17 Q1014 NOSIG

EXPIRED METARs :
  • 211630Z AUTO 34006KT 9999 FEW043 BKN068 OVC096 21/17 Q1014 NOSIG
  • 211600Z AUTO 35007KT 9999 -RA FEW036 BKN068 OVC078 20/17 Q1014 TEMPO 4000 SHRA BKN030TCU
  • 211530Z AUTO 35008KT 9999 -RA SCT033 BKN045 OVC060 20/16 Q1014 TEMPO 4000 SHRA BKN030TCU
  • 211500Z AUTO 34007KT 9999 BKN033 BKN040 BKN054 21/15 Q1014 TEMPO 4000 SHRA BKN030TCU
  • 211430Z AUTO 28006KT 250V310 9999 FEW034 SCT041 OVC066 23/15 Q1014 TEMPO 4000 SHRA BKN030TCU

TAF TAF LFOB
Valid from the 21 at 12:00 until the 22 at 12:00 UTC


211100Z 2112/2212 VRB03KT 9999 SCT025
PROB30
TEMPO 2113/2117 4000 SHRA BKN030TCU
ATIS : +33 3 44 11 49 28
No reported NOTAMs for that airfield.



MET'MAP, your aeronautical weather chart ! - Copyright ORBIFLY December 2007 - Disclaimer

ORBIFLY MET'MAP TEAM :

Programming & Development : Alexandra Zaïnal
Concept & Development : Baudouin d'Aumeries
Co-Development & Prog : Marc-Olivier Méhu
Technical & hardware support : Manuel Goepfert

Contact : metmap@orbifly.com




SOURCES & CREDITS :

   NOAA